createdAt,value
2022-08-24T00:02:39.814Z,22.80
2022-08-24T00:05:25.237Z,22.50
2022-08-24T00:08:10.970Z,22.50
2022-08-24T00:10:58.071Z,22.30
2022-08-24T00:13:44.840Z,22.00
2022-08-24T00:16:33.176Z,22.20
2022-08-24T00:19:19.293Z,22.60
2022-08-24T00:22:05.440Z,22.60
2022-08-24T00:24:51.106Z,23.10
2022-08-24T00:27:37.160Z,23.20
2022-08-24T00:30:23.252Z,23.00
2022-08-24T00:33:08.806Z,23.00
2022-08-24T00:35:54.221Z,23.00
2022-08-24T00:38:40.292Z,23.30
2022-08-24T00:41:26.624Z,23.60
2022-08-24T00:44:14.232Z,23.80
2022-08-24T00:47:03.957Z,23.80
2022-08-24T00:49:59.234Z,23.90
2022-08-24T00:52:58.093Z,23.90
2022-08-24T00:55:48.617Z,23.80
2022-08-24T00:58:41.966Z,23.80
2022-08-24T01:01:29.376Z,23.90
2022-08-24T01:04:22.886Z,23.90
2022-08-24T01:07:11.855Z,23.90
2022-08-24T01:10:03.301Z,22.80
2022-08-24T01:13:00.477Z,22.30
2022-08-24T01:15:50.293Z,22.20
2022-08-24T01:18:52.157Z,21.50
2022-08-24T01:21:54.296Z,21.20
2022-08-24T01:24:40.845Z,21.40
2022-08-24T01:27:27.961Z,21.70
2022-08-24T01:30:16.335Z,21.10
2022-08-24T01:33:06.433Z,21.10
2022-08-24T01:35:59.889Z,21.30
2022-08-24T01:38:47.512Z,21.50
2022-08-24T01:41:34.452Z,21.90
2022-08-24T01:44:22.753Z,22.10
2022-08-24T01:47:14.901Z,21.80
2022-08-24T01:50:02.310Z,22.00
2022-08-24T01:53:05.106Z,21.80
2022-08-24T01:55:51.479Z,21.50
2022-08-24T01:58:42.855Z,21.30
2022-08-24T02:01:30.695Z,21.40
2022-08-24T02:04:17.645Z,21.30
2022-08-24T02:07:06.262Z,21.40
2022-08-24T02:09:53.954Z,21.40
2022-08-24T02:12:41.836Z,21.10
2022-08-24T02:15:39.925Z,21.30
2022-08-24T02:18:27.774Z,21.40
2022-08-24T02:21:14.150Z,21.30
2022-08-24T02:24:00.073Z,21.20
2022-08-24T02:26:46.801Z,21.20
2022-08-24T02:29:33.005Z,21.00
2022-08-24T02:32:20.314Z,21.30
2022-08-24T02:35:08.734Z,21.50
2022-08-24T02:37:54.228Z,21.50
2022-08-24T02:40:39.742Z,21.50
2022-08-24T02:43:25.488Z,21.70
2022-08-24T02:46:21.304Z,21.60
2022-08-24T02:49:10.841Z,21.50
2022-08-24T02:51:58.807Z,21.80
2022-08-24T02:54:44.745Z,21.60
2022-08-24T02:57:31.527Z,21.40
2022-08-24T03:00:20.048Z,21.50
2022-08-24T03:03:10.286Z,22.10
2022-08-24T03:05:56.215Z,22.50
2022-08-24T03:08:42.230Z,22.20
2022-08-24T03:11:33.921Z,22.20
2022-08-24T03:14:19.670Z,22.40
2022-08-24T03:17:05.466Z,22.30
2022-08-24T03:19:51.130Z,22.40
2022-08-24T03:22:38.878Z,22.50
2022-08-24T03:25:26.767Z,22.50
2022-08-24T03:28:12.717Z,22.30
2022-08-24T03:31:00.228Z,21.80
2022-08-24T03:36:47.994Z,20.90
2022-08-24T03:39:35.297Z,20.90
2022-08-24T03:42:21.149Z,20.80
2022-08-24T03:45:07.840Z,20.90
2022-08-24T03:47:55.420Z,21.10
2022-08-24T03:50:45.311Z,21.10
2022-08-24T03:53:32.853Z,21.10
2022-08-24T03:56:20.299Z,20.80
2022-08-24T03:59:09.449Z,20.70
2022-08-24T04:01:59.023Z,20.70
2022-08-24T04:04:49.932Z,20.50
2022-08-24T04:07:35.911Z,20.40
2022-08-24T04:10:21.513Z,20.50
2022-08-24T04:13:08.574Z,20.20
2022-08-24T04:15:54.086Z,20.00
2022-08-24T04:18:40.577Z,19.80
2022-08-24T04:21:30.362Z,19.80
2022-08-24T04:24:16.187Z,20.20
2022-08-24T04:27:02.078Z,19.90
2022-08-24T04:29:47.777Z,20.10
2022-08-24T04:32:33.758Z,20.20
2022-08-24T04:35:20.009Z,20.30
2022-08-24T04:38:07.050Z,20.50
2022-08-24T04:40:52.912Z,20.40
2022-08-24T04:43:39.567Z,20.30
2022-08-24T04:46:25.503Z,20.50
2022-08-24T04:49:12.620Z,20.60
2022-08-24T04:51:58.459Z,21.00
2022-08-24T04:54:44.403Z,21.10
2022-08-24T04:57:36.183Z,21.00
2022-08-24T05:00:22.431Z,21.10
2022-08-24T05:03:08.308Z,21.30
2022-08-24T05:05:54.049Z,21.30
2022-08-24T05:08:40.123Z,21.40
2022-08-24T05:11:27.045Z,21.50
2022-08-24T05:14:13.511Z,21.60
2022-08-24T05:16:59.625Z,21.70
2022-08-24T05:19:52.593Z,21.70
2022-08-24T05:22:40.013Z,21.80
2022-08-24T05:25:25.566Z,21.80
2022-08-24T05:28:11.230Z,21.80
2022-08-24T05:30:57.464Z,21.80
2022-08-24T05:33:43.819Z,22.00
2022-08-24T05:36:32.414Z,22.00
2022-08-24T05:39:18.402Z,22.10
2022-08-24T05:42:10.638Z,22.20
2022-08-24T05:45:02.725Z,22.30
2022-08-24T05:47:48.946Z,22.40
2022-08-24T05:51:08.980Z,22.50
2022-08-24T05:54:05.641Z,22.70
2022-08-24T05:57:06.716Z,22.90
2022-08-24T06:00:12.116Z,22.90
2022-08-24T06:03:08.707Z,23.10
2022-08-24T06:06:04.651Z,23.40
2022-08-24T06:08:52.523Z,23.60
2022-08-24T06:11:41.247Z,23.80
2022-08-24T06:14:28.187Z,24.00
2022-08-24T06:17:16.988Z,24.10
2022-08-24T06:20:04.020Z,24.20
2022-08-24T06:22:50.633Z,24.30
2022-08-24T06:25:59.219Z,24.30
2022-08-24T06:28:45.732Z,23.70
2022-08-24T06:31:39.902Z,23.60
2022-08-24T06:34:27.630Z,24.00
2022-08-24T06:37:13.612Z,23.80
2022-08-24T06:40:00.056Z,23.40
2022-08-24T06:42:46.778Z,23.20
2022-08-24T06:45:43.735Z,23.20
2022-08-24T06:48:31.312Z,23.00
2022-08-24T06:51:19.654Z,22.90
2022-08-24T06:54:06.795Z,23.00
2022-08-24T06:56:53.723Z,23.40
2022-08-24T06:59:40.371Z,23.60
2022-08-24T07:02:26.955Z,23.80
2022-08-24T07:05:12.802Z,23.90
2022-08-24T07:08:17.933Z,24.20
2022-08-24T07:11:07.041Z,24.60
2022-08-24T07:13:52.765Z,24.70
2022-08-24T07:16:38.424Z,25.10
2022-08-24T07:19:26.659Z,24.90
2022-08-24T07:22:14.004Z,24.50
2022-08-24T07:25:01.686Z,24.70
2022-08-24T07:27:48.092Z,24.90
2022-08-24T07:30:35.012Z,25.50
2022-08-24T07:33:20.776Z,25.00
2022-08-24T07:36:09.134Z,25.60
2022-08-24T07:38:55.254Z,26.00
2022-08-24T07:42:02.585Z,26.20
2022-08-24T07:44:48.591Z,26.40
2022-08-24T07:47:38.986Z,26.70
2022-08-24T07:50:39.341Z,26.60
2022-08-24T07:53:32.544Z,27.10
2022-08-24T07:56:29.704Z,27.30
2022-08-24T07:59:18.301Z,27.10
2022-08-24T08:02:05.778Z,26.80
2022-08-24T08:04:54.561Z,26.90
2022-08-24T08:07:40.559Z,26.60
2022-08-24T08:10:31.029Z,26.70
2022-08-24T08:13:17.552Z,27.00
2022-08-24T08:16:08.442Z,26.60
2022-08-24T08:19:11.717Z,26.90
2022-08-24T08:22:19.980Z,27.30
2022-08-24T08:25:32.184Z,27.70
2022-08-24T08:28:26.013Z,28.80
2022-08-24T08:31:20.378Z,30.10
2022-08-24T08:34:07.472Z,31.10
2022-08-24T08:36:55.087Z,31.40
2022-08-24T08:39:41.112Z,33.20
2022-08-24T08:42:37.281Z,31.00
2022-08-24T08:45:54.889Z,29.60
2022-08-24T08:49:44.066Z,29.60
2022-08-24T08:52:29.993Z,30.80
2022-08-24T08:55:22.588Z,30.10
2022-08-24T08:58:23.562Z,29.50
2022-08-24T09:01:32.859Z,29.40
2022-08-24T09:04:59.694Z,30.60
2022-08-24T09:07:54.850Z,30.90
2022-08-24T09:10:54.718Z,29.50
2022-08-24T09:13:43.632Z,30.50
2022-08-24T09:16:52.172Z,30.70
2022-08-24T09:19:58.828Z,29.90
2022-08-24T09:22:48.327Z,31.50
2022-08-24T09:25:54.178Z,31.00
2022-08-24T09:29:11.239Z,31.80
2022-08-24T09:32:03.239Z,31.60
2022-08-24T09:35:26.182Z,32.50
2022-08-24T09:38:55.549Z,33.50
2022-08-24T09:42:00.015Z,31.40
2022-08-24T09:45:05.099Z,32.60
2022-08-24T09:48:16.264Z,33.30
2022-08-24T09:51:29.420Z,33.80
2022-08-24T09:54:33.991Z,32.30
2022-08-24T09:58:10.529Z,31.90
2022-08-24T10:01:14.476Z,32.00
2022-08-24T10:04:43.236Z,31.40
2022-08-24T10:07:41.436Z,32.30
2022-08-24T10:10:39.892Z,32.90
2022-08-24T10:13:40.195Z,33.50
2022-08-24T10:16:49.933Z,33.20
2022-08-24T10:19:54.536Z,32.90
2022-08-24T10:23:04.422Z,32.70
2022-08-24T10:26:00.069Z,33.80
2022-08-24T10:29:00.909Z,33.90
2022-08-24T10:32:15.508Z,35.70
2022-08-24T10:35:05.896Z,34.60
2022-08-24T10:38:41.070Z,33.80
2022-08-24T10:42:03.971Z,34.40
2022-08-24T10:45:05.219Z,32.90
2022-08-24T10:48:30.208Z,33.70
2022-08-24T10:51:46.281Z,34.60
2022-08-24T10:54:37.939Z,34.70
2022-08-24T10:57:49.887Z,34.40
2022-08-24T11:00:36.584Z,36.20
2022-08-24T11:03:28.724Z,34.90
2022-08-24T11:06:17.388Z,33.20
2022-08-24T11:09:21.526Z,34.60
2022-08-24T11:12:37.773Z,35.50
2022-08-24T11:15:28.160Z,34.50
2022-08-24T11:18:14.166Z,34.40
2022-08-24T11:21:00.918Z,32.90
2022-08-24T11:23:47.507Z,32.40
2022-08-24T11:27:02.717Z,33.10
2022-08-24T11:29:52.232Z,34.40
2022-08-24T11:32:44.985Z,34.80
2022-08-24T11:35:39.352Z,36.20
2022-08-24T11:38:32.024Z,37.10
2022-08-24T11:41:26.367Z,36.40
2022-08-24T11:44:18.020Z,33.10
2022-08-24T11:47:08.768Z,34.40
2022-08-24T11:50:32.221Z,33.00
2022-08-24T11:56:57.928Z,35.20
2022-08-24T11:59:58.121Z,34.80
2022-08-24T12:03:11.488Z,34.10
2022-08-24T12:06:18.160Z,37.20
2022-08-24T12:09:29.245Z,34.60
2022-08-24T12:12:53.463Z,34.50
2022-08-24T12:15:43.673Z,33.40
2022-08-24T12:18:45.501Z,34.40
2022-08-24T12:21:33.470Z,33.70
2022-08-24T12:24:43.243Z,32.90
2022-08-24T12:27:37.018Z,33.20
2022-08-24T12:30:22.940Z,33.60
2022-08-24T12:33:13.510Z,35.60
2022-08-24T12:36:04.520Z,33.80
2022-08-24T12:39:02.791Z,34.00
2022-08-24T12:42:17.139Z,34.00
2022-08-24T12:45:08.924Z,34.80
2022-08-24T12:48:17.854Z,35.50
2022-08-24T12:51:42.401Z,33.00
2022-08-24T12:54:33.200Z,33.50
2022-08-24T12:57:19.066Z,34.40
2022-08-24T13:00:20.402Z,34.70
2022-08-24T13:03:09.407Z,35.90
2022-08-24T13:05:58.877Z,33.40
2022-08-24T13:08:49.265Z,32.40
2022-08-24T13:11:35.945Z,31.80
2022-08-24T13:14:24.696Z,31.30
2022-08-24T13:17:13.089Z,31.20
2022-08-24T13:20:17.262Z,30.80
2022-08-24T13:23:12.839Z,31.00
2022-08-24T13:25:59.974Z,31.00
2022-08-24T13:28:56.605Z,31.70
2022-08-24T13:31:51.403Z,31.70
2022-08-24T13:34:44.301Z,31.00
2022-08-24T13:37:30.149Z,30.80
2022-08-24T13:40:27.783Z,31.20
2022-08-24T13:43:21.211Z,31.50
2022-08-24T13:46:20.316Z,31.60
2022-08-24T13:49:24.526Z,32.10
2022-08-24T13:52:17.684Z,31.50
2022-08-24T13:55:28.657Z,31.00
2022-08-24T13:58:49.981Z,30.90
2022-08-24T14:01:41.690Z,31.40
2022-08-24T14:04:53.638Z,31.00
2022-08-24T14:08:04.721Z,31.00
2022-08-24T14:11:09.313Z,31.10
2022-08-24T14:14:16.748Z,31.40
2022-08-24T14:17:41.680Z,31.30
2022-08-24T14:20:58.000Z,31.50
2022-08-24T14:24:07.021Z,31.60
2022-08-24T14:27:02.822Z,31.40
2022-08-24T14:29:49.735Z,30.80
2022-08-24T14:32:40.128Z,30.70
2022-08-24T14:35:26.836Z,30.60
2022-08-24T14:38:24.903Z,30.50
2022-08-24T14:41:25.814Z,30.60
2022-08-24T14:44:21.089Z,30.70
2022-08-24T14:47:50.143Z,30.80
2022-08-24T14:50:53.836Z,30.80
2022-08-24T14:54:12.279Z,30.40
2022-08-24T14:57:25.299Z,30.60
2022-08-24T15:00:32.067Z,31.10
2022-08-24T15:03:56.642Z,31.10
2022-08-24T15:06:53.286Z,31.20
2022-08-24T15:09:42.699Z,31.00
2022-08-24T15:12:52.848Z,31.10
2022-08-24T15:15:45.343Z,30.90
2022-08-24T15:18:52.796Z,31.20
2022-08-24T15:22:02.947Z,31.00
2022-08-24T15:25:07.216Z,31.10
2022-08-24T15:28:21.425Z,31.00
2022-08-24T15:31:11.040Z,30.70
2022-08-24T15:34:03.977Z,30.50
2022-08-24T15:37:01.294Z,30.60
2022-08-24T15:39:46.776Z,30.30
2022-08-24T15:42:37.158Z,30.50
2022-08-24T15:45:23.931Z,30.40
2022-08-24T15:48:13.120Z,30.50
2022-08-24T15:51:01.070Z,30.60
2022-08-24T15:53:48.010Z,30.50
2022-08-24T15:56:47.307Z,30.50
2022-08-24T15:59:48.218Z,30.50
2022-08-24T16:02:38.707Z,30.60
2022-08-24T16:05:25.421Z,30.90
2022-08-24T16:08:13.648Z,31.10
2022-08-24T16:11:19.643Z,31.10
2022-08-24T16:14:28.603Z,30.70
2022-08-24T16:17:51.718Z,30.40
2022-08-24T16:20:37.644Z,30.50
2022-08-24T16:23:31.694Z,30.30
2022-08-24T16:26:26.591Z,30.70
2022-08-24T16:29:53.515Z,30.80
2022-08-24T16:32:54.094Z,30.70
2022-08-24T16:35:40.711Z,30.30
2022-08-24T16:38:27.940Z,30.30
2022-08-24T16:41:16.292Z,30.20
2022-08-24T16:44:02.020Z,30.20
2022-08-24T16:46:48.285Z,30.20
2022-08-24T16:49:34.727Z,30.10
2022-08-24T16:52:21.211Z,30.10
2022-08-24T16:55:07.659Z,30.20
2022-08-24T16:57:53.123Z,30.10
2022-08-24T17:00:38.982Z,30.00
2022-08-24T17:03:25.076Z,30.10
2022-08-24T17:06:12.518Z,29.90
2022-08-24T17:09:00.998Z,29.90
2022-08-24T17:11:47.191Z,29.90
2022-08-24T17:14:32.774Z,29.90
2022-08-24T17:17:21.655Z,29.70
2022-08-24T17:20:12.329Z,29.70
2022-08-24T17:22:58.539Z,29.60
2022-08-24T17:25:44.831Z,29.50
2022-08-24T17:28:31.167Z,29.50
2022-08-24T17:31:17.256Z,29.30
2022-08-24T17:34:05.142Z,29.40
2022-08-24T17:36:53.611Z,29.40
2022-08-24T17:39:39.548Z,29.30
2022-08-24T17:42:51.008Z,29.30
2022-08-24T17:45:30.777Z,29.30
2022-08-24T17:48:22.821Z,29.30
2022-08-24T17:51:08.815Z,29.20
2022-08-24T17:53:54.652Z,29.20
2022-08-24T17:56:41.031Z,29.20
2022-08-24T17:59:34.861Z,29.30
2022-08-24T18:02:20.639Z,29.10
2022-08-24T18:05:08.501Z,29.10
2022-08-24T18:07:55.901Z,29.00
2022-08-24T18:10:41.885Z,28.90
2022-08-24T18:13:28.980Z,28.90
2022-08-24T18:16:20.775Z,29.10
2022-08-24T18:19:06.822Z,29.40
2022-08-24T18:21:52.456Z,29.40
2022-08-24T18:24:38.507Z,29.20
2022-08-24T18:27:33.744Z,29.30
2022-08-24T18:30:27.605Z,29.00
2022-08-24T18:33:17.036Z,28.90
2022-08-24T18:36:02.795Z,28.90
2022-08-24T18:38:48.234Z,29.10
2022-08-24T18:41:38.362Z,29.20
2022-08-24T18:44:28.253Z,29.00
2022-08-24T18:47:17.231Z,29.10
2022-08-24T18:50:03.564Z,29.20
2022-08-24T18:52:49.857Z,29.20
2022-08-24T18:55:37.687Z,29.10
2022-08-24T18:58:24.140Z,29.40
2022-08-24T19:01:10.742Z,29.20
2022-08-24T19:03:56.500Z,29.20
2022-08-24T19:06:42.802Z,29.10
2022-08-24T19:09:33.940Z,29.20
2022-08-24T19:12:22.034Z,29.10
2022-08-24T19:15:09.011Z,29.20
2022-08-24T19:18:18.202Z,29.00
2022-08-24T19:21:03.659Z,28.70
2022-08-24T19:23:49.670Z,28.80
2022-08-24T19:26:37.034Z,28.90
2022-08-24T19:29:44.960Z,28.80
2022-08-24T19:32:30.448Z,28.60
2022-08-24T19:35:16.584Z,28.50
2022-08-24T19:38:03.482Z,28.40
2022-08-24T19:40:49.270Z,28.40
2022-08-24T19:43:55.998Z,28.40
2022-08-24T19:46:42.609Z,28.30
2022-08-24T19:49:30.532Z,28.30
2022-08-24T19:52:16.864Z,28.00
2022-08-24T19:55:07.137Z,28.00
2022-08-24T19:58:04.820Z,28.00
2022-08-24T20:00:58.630Z,27.90
2022-08-24T20:03:48.942Z,27.90
2022-08-24T20:06:36.087Z,27.80
2022-08-24T20:09:23.549Z,27.70
2022-08-24T20:12:09.558Z,27.70
2022-08-24T20:14:56.683Z,27.70
2022-08-24T20:17:43.163Z,27.60
2022-08-24T20:20:30.964Z,27.70
2022-08-24T20:23:16.784Z,27.60
2022-08-24T20:26:05.654Z,27.60
2022-08-24T20:28:52.876Z,27.50
2022-08-24T20:31:38.852Z,27.30
2022-08-24T20:34:24.557Z,27.50
2022-08-24T20:37:11.683Z,27.50
2022-08-24T20:39:58.624Z,27.20
2022-08-24T20:42:44.215Z,27.20
2022-08-24T20:45:35.517Z,27.20
2022-08-24T20:48:30.605Z,27.20
2022-08-24T20:51:16.378Z,26.90
2022-08-24T20:54:02.609Z,26.90
2022-08-24T20:56:50.508Z,26.90
2022-08-24T20:59:40.941Z,27.00
2022-08-24T21:02:27.325Z,27.20
2022-08-24T21:05:17.304Z,27.20
2022-08-24T21:08:03.454Z,27.10
2022-08-24T21:10:49.722Z,27.20
2022-08-24T21:13:36.140Z,27.20
2022-08-24T21:16:21.800Z,27.10
2022-08-24T21:19:16.427Z,26.90
2022-08-24T21:22:02.480Z,27.00
2022-08-24T21:24:48.225Z,26.80
2022-08-24T21:27:38.377Z,26.70
2022-08-24T21:30:24.044Z,26.90
2022-08-24T21:33:28.563Z,26.70
2022-08-24T21:36:14.948Z,26.60
2022-08-24T21:39:00.639Z,26.70
2022-08-24T21:41:46.566Z,26.80
2022-08-24T21:44:32.817Z,26.90
2022-08-24T21:47:18.640Z,26.80
2022-08-24T21:50:06.166Z,26.60
2022-08-24T21:52:53.897Z,26.50
2022-08-24T21:55:43.277Z,26.40
2022-08-24T21:58:29.611Z,26.40
2022-08-24T22:01:16.267Z,26.40
2022-08-24T22:04:01.836Z,26.60
2022-08-24T22:06:47.766Z,26.30
2022-08-24T22:09:37.096Z,26.30
2022-08-24T22:12:28.808Z,26.30
2022-08-24T22:15:25.461Z,26.20
2022-08-24T22:18:19.252Z,26.30
2022-08-24T22:21:08.451Z,26.20
2022-08-24T22:23:57.587Z,26.00
2022-08-24T22:26:43.848Z,25.90
2022-08-24T22:29:29.605Z,25.70
2022-08-24T22:32:15.709Z,25.40
2022-08-24T22:35:01.845Z,25.30
2022-08-24T22:37:47.892Z,25.10
2022-08-24T22:40:33.482Z,25.00
2022-08-24T22:43:23.194Z,25.00
2022-08-24T22:46:10.326Z,24.80
2022-08-24T22:48:57.565Z,25.00
2022-08-24T22:51:43.372Z,24.90
2022-08-24T22:54:29.693Z,25.10
2022-08-24T22:57:17.672Z,25.30
2022-08-24T23:00:08.579Z,25.30
2022-08-24T23:02:55.019Z,25.20
2022-08-24T23:05:40.820Z,24.60
2022-08-24T23:08:26.503Z,24.30
2022-08-24T23:11:13.080Z,24.60
2022-08-24T23:14:02.707Z,24.40
2022-08-24T23:16:49.104Z,24.90
2022-08-24T23:19:53.289Z,24.90
2022-08-24T23:22:40.987Z,25.10
2022-08-24T23:25:26.996Z,25.10
2022-08-24T23:28:14.753Z,24.90
2022-08-24T23:31:05.990Z,24.90
2022-08-24T23:33:56.074Z,25.00
2022-08-24T23:36:42.667Z,25.20
2022-08-24T23:39:28.656Z,25.00
2022-08-24T23:42:15.425Z,24.90
2022-08-24T23:45:01.398Z,24.80
2022-08-24T23:47:47.796Z,25.00
2022-08-24T23:50:34.152Z,25.00
2022-08-24T23:53:20.577Z,24.80
2022-08-24T23:56:23.093Z,24.50
2022-08-24T23:59:21.740Z,24.50
